sensor_id;sensor_type;location;lat;lon;timestamp;P1;durP1;ratioP1;P2;durP2;ratioP2
38629;SDS011;24384;51.988;4.644;2022-07-06T00:01:18;5.38;;;1.13;;
38629;SDS011;24384;51.988;4.644;2022-07-06T00:03:43;2.67;;;0.73;;
38629;SDS011;24384;51.988;4.644;2022-07-06T00:06:09;4.15;;;1.08;;
38629;SDS011;24384;51.988;4.644;2022-07-06T00:08:34;4.43;;;0.90;;
38629;SDS011;24384;51.988;4.644;2022-07-06T00:11:01;2.90;;;0.90;;
38629;SDS011;24384;51.988;4.644;2022-07-06T00:13:26;3.40;;;1.08;;
38629;SDS011;24384;51.988;4.644;2022-07-06T00:15:52;4.13;;;1.00;;
38629;SDS011;24384;51.988;4.644;2022-07-06T00:18:18;4.63;;;1.10;;
38629;SDS011;24384;51.988;4.644;2022-07-06T00:20:43;2.53;;;0.80;;
38629;SDS011;24384;51.988;4.644;2022-07-06T00:23:09;2.15;;;0.80;;
38629;SDS011;24384;51.988;4.644;2022-07-06T00:25:34;3.17;;;0.98;;
38629;SDS011;24384;51.988;4.644;2022-07-06T00:28:00;6.40;;;1.08;;
38629;SDS011;24384;51.988;4.644;2022-07-06T00:30:25;5.15;;;1.25;;
38629;SDS011;24384;51.988;4.644;2022-07-06T00:32:51;4.72;;;0.80;;
38629;SDS011;24384;51.988;4.644;2022-07-06T00:35:16;4.30;;;1.02;;
38629;SDS011;24384;51.988;4.644;2022-07-06T00:37:41;3.58;;;0.90;;
38629;SDS011;24384;51.988;4.644;2022-07-06T00:40:07;6.15;;;1.17;;
38629;SDS011;24384;51.988;4.644;2022-07-06T00:42:43;5.35;;;1.20;;
38629;SDS011;24384;51.988;4.644;2022-07-06T00:45:10;2.95;;;0.88;;
38629;SDS011;24384;51.988;4.644;2022-07-06T00:47:37;3.78;;;0.90;;
38629;SDS011;24384;51.988;4.644;2022-07-06T00:50:04;4.75;;;1.10;;
38629;SDS011;24384;51.988;4.644;2022-07-06T00:52:39;3.10;;;0.90;;
38629;SDS011;24384;51.988;4.644;2022-07-06T00:55:09;2.78;;;0.98;;
38629;SDS011;24384;51.988;4.644;2022-07-06T00:57:36;4.45;;;1.10;;
38629;SDS011;24384;51.988;4.644;2022-07-06T01:00:05;8.50;;;1.45;;
38629;SDS011;24384;51.988;4.644;2022-07-06T01:02:34;4.90;;;1.20;;
38629;SDS011;24384;51.988;4.644;2022-07-06T01:05:00;4.75;;;1.27;;
38629;SDS011;24384;51.988;4.644;2022-07-06T01:07:26;3.22;;;1.00;;
38629;SDS011;24384;51.988;4.644;2022-07-06T01:09:52;5.05;;;1.13;;
38629;SDS011;24384;51.988;4.644;2022-07-06T01:12:18;3.40;;;1.00;;
38629;SDS011;24384;51.988;4.644;2022-07-06T01:14:44;2.97;;;1.20;;
38629;SDS011;24384;51.988;4.644;2022-07-06T01:17:12;2.80;;;0.93;;
38629;SDS011;24384;51.988;4.644;2022-07-06T01:19:39;4.55;;;0.90;;
38629;SDS011;24384;51.988;4.644;2022-07-06T01:22:04;4.35;;;1.10;;
38629;SDS011;24384;51.988;4.644;2022-07-06T01:24:29;6.63;;;1.23;;
38629;SDS011;24384;51.988;4.644;2022-07-06T01:26:55;4.18;;;1.00;;
38629;SDS011;24384;51.988;4.644;2022-07-06T01:29:21;5.15;;;1.10;;
38629;SDS011;24384;51.988;4.644;2022-07-06T01:31:47;5.10;;;0.95;;
38629;SDS011;24384;51.988;4.644;2022-07-06T01:34:13;5.90;;;1.10;;
38629;SDS011;24384;51.988;4.644;2022-07-06T01:36:40;5.80;;;1.20;;
38629;SDS011;24384;51.988;4.644;2022-07-06T01:39:07;7.75;;;1.15;;
38629;SDS011;24384;51.988;4.644;2022-07-06T01:41:33;3.33;;;0.85;;
38629;SDS011;24384;51.988;4.644;2022-07-06T01:43:58;5.22;;;1.00;;
38629;SDS011;24384;51.988;4.644;2022-07-06T01:46:23;2.65;;;0.80;;
38629;SDS011;24384;51.988;4.644;2022-07-06T01:48:49;4.60;;;0.82;;
38629;SDS011;24384;51.988;4.644;2022-07-06T01:51:14;5.38;;;1.00;;
38629;SDS011;24384;51.988;4.644;2022-07-06T01:53:40;3.47;;;1.00;;
38629;SDS011;24384;51.988;4.644;2022-07-06T01:56:06;5.07;;;0.90;;
38629;SDS011;24384;51.988;4.644;2022-07-06T01:58:31;2.15;;;0.80;;
38629;SDS011;24384;51.988;4.644;2022-07-06T02:00:57;4.70;;;0.80;;
38629;SDS011;24384;51.988;4.644;2022-07-06T02:03:22;2.67;;;0.88;;
38629;SDS011;24384;51.988;4.644;2022-07-06T02:05:48;3.65;;;1.00;;
38629;SDS011;24384;51.988;4.644;2022-07-06T02:08:13;1.80;;;0.85;;
38629;SDS011;24384;51.988;4.644;2022-07-06T02:10:39;2.78;;;1.00;;
38629;SDS011;24384;51.988;4.644;2022-07-06T02:13:05;3.00;;;1.05;;
38629;SDS011;24384;51.988;4.644;2022-07-06T02:15:32;6.10;;;0.95;;
38629;SDS011;24384;51.988;4.644;2022-07-06T02:17:57;2.15;;;0.75;;
38629;SDS011;24384;51.988;4.644;2022-07-06T02:20:23;3.75;;;1.05;;
38629;SDS011;24384;51.988;4.644;2022-07-06T02:22:48;4.65;;;1.00;;
38629;SDS011;24384;51.988;4.644;2022-07-06T02:25:14;2.10;;;0.70;;
38629;SDS011;24384;51.988;4.644;2022-07-06T02:27:39;6.25;;;1.10;;
38629;SDS011;24384;51.988;4.644;2022-07-06T02:30:05;6.20;;;1.10;;
38629;SDS011;24384;51.988;4.644;2022-07-06T02:32:31;4.15;;;0.90;;
38629;SDS011;24384;51.988;4.644;2022-07-06T02:34:56;3.22;;;1.00;;
38629;SDS011;24384;51.988;4.644;2022-07-06T02:37:22;3.20;;;0.73;;
38629;SDS011;24384;51.988;4.644;2022-07-06T02:39:48;3.83;;;0.95;;
38629;SDS011;24384;51.988;4.644;2022-07-06T02:42:13;4.60;;;0.95;;
38629;SDS011;24384;51.988;4.644;2022-07-06T02:44:39;5.07;;;0.82;;
38629;SDS011;24384;51.988;4.644;2022-07-06T02:47:04;3.60;;;0.73;;
38629;SDS011;24384;51.988;4.644;2022-07-06T02:49:29;1.75;;;0.80;;
38629;SDS011;24384;51.988;4.644;2022-07-06T02:51:55;2.33;;;0.77;;
38629;SDS011;24384;51.988;4.644;2022-07-06T02:54:20;3.17;;;0.80;;
38629;SDS011;24384;51.988;4.644;2022-07-06T02:56:46;3.72;;;0.70;;
38629;SDS011;24384;51.988;4.644;2022-07-06T02:59:16;2.75;;;0.80;;
38629;SDS011;24384;51.988;4.644;2022-07-06T03:01:41;2.95;;;0.80;;
38629;SDS011;24384;51.988;4.644;2022-07-06T03:04:07;2.08;;;0.80;;
38629;SDS011;24384;51.988;4.644;2022-07-06T03:06:32;2.83;;;1.00;;
38629;SDS011;24384;51.988;4.644;2022-07-06T03:08:58;2.55;;;0.85;;
38629;SDS011;24384;51.988;4.644;2022-07-06T03:11:23;2.92;;;0.90;;
38629;SDS011;24384;51.988;4.644;2022-07-06T03:13:48;1.85;;;0.70;;
38629;SDS011;24384;51.988;4.644;2022-07-06T03:16:14;3.63;;;0.90;;
38629;SDS011;24384;51.988;4.644;2022-07-06T03:18:39;4.07;;;0.90;;
38629;SDS011;24384;51.988;4.644;2022-07-06T03:21:05;3.95;;;0.90;;
38629;SDS011;24384;51.988;4.644;2022-07-06T03:23:30;2.20;;;0.85;;
38629;SDS011;24384;51.988;4.644;2022-07-06T03:25:56;1.80;;;0.77;;
38629;SDS011;24384;51.988;4.644;2022-07-06T03:28:21;3.63;;;1.00;;
38629;SDS011;24384;51.988;4.644;2022-07-06T03:30:47;3.78;;;1.05;;
38629;SDS011;24384;51.988;4.644;2022-07-06T03:33:12;3.42;;;1.00;;
38629;SDS011;24384;51.988;4.644;2022-07-06T03:35:37;2.75;;;0.88;;
38629;SDS011;24384;51.988;4.644;2022-07-06T03:38:03;2.55;;;0.75;;
38629;SDS011;24384;51.988;4.644;2022-07-06T03:40:28;5.07;;;0.90;;
38629;SDS011;24384;51.988;4.644;2022-07-06T03:42:54;2.83;;;0.98;;
38629;SDS011;24384;51.988;4.644;2022-07-06T03:45:19;3.22;;;0.90;;
38629;SDS011;24384;51.988;4.644;2022-07-06T03:47:44;3.70;;;0.80;;
38629;SDS011;24384;51.988;4.644;2022-07-06T03:50:10;2.25;;;0.90;;
38629;SDS011;24384;51.988;4.644;2022-07-06T03:52:35;2.85;;;0.70;;
38629;SDS011;24384;51.988;4.644;2022-07-06T03:55:04;3.58;;;1.10;;
38629;SDS011;24384;51.988;4.644;2022-07-06T03:57:39;3.15;;;0.60;;
38629;SDS011;24384;51.988;4.644;2022-07-06T04:00:05;2.30;;;0.68;;
38629;SDS011;24384;51.988;4.644;2022-07-06T04:02:32;2.55;;;0.55;;
38629;SDS011;24384;51.988;4.644;2022-07-06T04:04:57;5.22;;;0.80;;
38629;SDS011;24384;51.988;4.644;2022-07-06T04:07:23;5.65;;;0.90;;
38629;SDS011;24384;51.988;4.644;2022-07-06T04:09:48;2.78;;;0.90;;
38629;SDS011;24384;51.988;4.644;2022-07-06T04:12:14;4.75;;;0.85;;
38629;SDS011;24384;51.988;4.644;2022-07-06T04:14:39;2.42;;;0.70;;
38629;SDS011;24384;51.988;4.644;2022-07-06T04:17:04;4.82;;;1.02;;
38629;SDS011;24384;51.988;4.644;2022-07-06T04:19:48;6.53;;;1.00;;
38629;SDS011;24384;51.988;4.644;2022-07-06T04:22:14;3.58;;;0.75;;
38629;SDS011;24384;51.988;4.644;2022-07-06T04:24:39;6.15;;;1.20;;
38629;SDS011;24384;51.988;4.644;2022-07-06T04:27:05;2.40;;;0.90;;
38629;SDS011;24384;51.988;4.644;2022-07-06T04:29:30;2.90;;;0.90;;
38629;SDS011;24384;51.988;4.644;2022-07-06T04:31:55;4.47;;;0.63;;
38629;SDS011;24384;51.988;4.644;2022-07-06T04:34:21;3.53;;;0.70;;
38629;SDS011;24384;51.988;4.644;2022-07-06T04:36:46;3.25;;;0.70;;
38629;SDS011;24384;51.988;4.644;2022-07-06T04:39:11;2.53;;;0.68;;
38629;SDS011;24384;51.988;4.644;2022-07-06T04:41:37;2.80;;;0.60;;
38629;SDS011;24384;51.988;4.644;2022-07-06T04:44:03;4.00;;;0.90;;
38629;SDS011;24384;51.988;4.644;2022-07-06T04:46:28;2.85;;;1.00;;
38629;SDS011;24384;51.988;4.644;2022-07-06T04:48:55;3.22;;;1.17;;
38629;SDS011;24384;51.988;4.644;2022-07-06T04:51:20;3.83;;;0.90;;
38629;SDS011;24384;51.988;4.644;2022-07-06T04:53:46;2.88;;;0.85;;
38629;SDS011;24384;51.988;4.644;2022-07-06T04:56:11;3.85;;;1.08;;
38629;SDS011;24384;51.988;4.644;2022-07-06T04:58:37;4.05;;;0.88;;
38629;SDS011;24384;51.988;4.644;2022-07-06T05:01:02;2.70;;;0.98;;
38629;SDS011;24384;51.988;4.644;2022-07-06T05:03:28;2.65;;;0.90;;
38629;SDS011;24384;51.988;4.644;2022-07-06T05:05:53;2.42;;;0.90;;
38629;SDS011;24384;51.988;4.644;2022-07-06T05:08:19;4.55;;;1.00;;
38629;SDS011;24384;51.988;4.644;2022-07-06T05:10:44;6.90;;;1.02;;
38629;SDS011;24384;51.988;4.644;2022-07-06T05:13:10;5.53;;;1.02;;
38629;SDS011;24384;51.988;4.644;2022-07-06T05:15:35;3.25;;;0.80;;
38629;SDS011;24384;51.988;4.644;2022-07-06T05:18:00;6.20;;;1.00;;
38629;SDS011;24384;51.988;4.644;2022-07-06T05:20:26;7.15;;;0.90;;
38629;SDS011;24384;51.988;4.644;2022-07-06T05:22:51;2.08;;;0.88;;
38629;SDS011;24384;51.988;4.644;2022-07-06T05:25:16;5.68;;;1.17;;
38629;SDS011;24384;51.988;4.644;2022-07-06T05:27:42;5.13;;;1.10;;
38629;SDS011;24384;51.988;4.644;2022-07-06T05:30:07;3.63;;;0.93;;
38629;SDS011;24384;51.988;4.644;2022-07-06T05:32:33;2.75;;;0.80;;
38629;SDS011;24384;51.988;4.644;2022-07-06T05:34:59;4.05;;;1.02;;
38629;SDS011;24384;51.988;4.644;2022-07-06T05:37:24;5.22;;;0.90;;
38629;SDS011;24384;51.988;4.644;2022-07-06T05:39:49;4.60;;;1.15;;
38629;SDS011;24384;51.988;4.644;2022-07-06T05:42:15;5.32;;;1.27;;
38629;SDS011;24384;51.988;4.644;2022-07-06T05:44:41;4.07;;;0.90;;
38629;SDS011;24384;51.988;4.644;2022-07-06T05:47:06;4.65;;;0.88;;
38629;SDS011;24384;51.988;4.644;2022-07-06T05:49:50;2.15;;;0.85;;
38629;SDS011;24384;51.988;4.644;2022-07-06T05:52:34;4.80;;;1.00;;
38629;SDS011;24384;51.988;4.644;2022-07-06T05:55:00;3.38;;;1.30;;
38629;SDS011;24384;51.988;4.644;2022-07-06T05:57:25;5.45;;;1.00;;
38629;SDS011;24384;51.988;4.644;2022-07-06T05:59:51;4.65;;;0.85;;
38629;SDS011;24384;51.988;4.644;2022-07-06T06:02:17;5.75;;;0.70;;
38629;SDS011;24384;51.988;4.644;2022-07-06T06:04:42;4.30;;;0.80;;
38629;SDS011;24384;51.988;4.644;2022-07-06T06:07:08;6.30;;;0.70;;
38629;SDS011;24384;51.988;4.644;2022-07-06T06:09:33;3.22;;;0.60;;
38629;SDS011;24384;51.988;4.644;2022-07-06T06:11:58;1.58;;;0.60;;
38629;SDS011;24384;51.988;4.644;2022-07-06T06:14:24;1.88;;;0.57;;
38629;SDS011;24384;51.988;4.644;2022-07-06T06:16:49;2.85;;;0.50;;
38629;SDS011;24384;51.988;4.644;2022-07-06T06:19:15;3.08;;;0.60;;
38629;SDS011;24384;51.988;4.644;2022-07-06T06:21:40;1.27;;;0.40;;
38629;SDS011;24384;51.988;4.644;2022-07-06T06:24:06;7.65;;;0.57;;
38629;SDS011;24384;51.988;4.644;2022-07-06T06:26:32;1.45;;;0.43;;
38629;SDS011;24384;51.988;4.644;2022-07-06T06:28:57;2.85;;;0.40;;
38629;SDS011;24384;51.988;4.644;2022-07-06T06:31:23;2.90;;;0.65;;
38629;SDS011;24384;51.988;4.644;2022-07-06T06:33:48;1.92;;;0.50;;
38629;SDS011;24384;51.988;4.644;2022-07-06T06:36:14;1.48;;;0.32;;
38629;SDS011;24384;51.988;4.644;2022-07-06T06:38:39;1.73;;;0.50;;
38629;SDS011;24384;51.988;4.644;2022-07-06T06:41:05;3.67;;;0.43;;
38629;SDS011;24384;51.988;4.644;2022-07-06T06:43:30;3.28;;;0.50;;
38629;SDS011;24384;51.988;4.644;2022-07-06T06:45:56;2.38;;;0.45;;
38629;SDS011;24384;51.988;4.644;2022-07-06T06:48:21;5.07;;;0.50;;
38629;SDS011;24384;51.988;4.644;2022-07-06T06:50:47;3.67;;;0.65;;
38629;SDS011;24384;51.988;4.644;2022-07-06T06:53:12;2.28;;;0.43;;
38629;SDS011;24384;51.988;4.644;2022-07-06T06:55:38;1.75;;;0.30;;
38629;SDS011;24384;51.988;4.644;2022-07-06T06:58:03;2.55;;;0.57;;
38629;SDS011;24384;51.988;4.644;2022-07-06T07:00:29;5.38;;;0.70;;
38629;SDS011;24384;51.988;4.644;2022-07-06T07:02:54;2.40;;;0.70;;
38629;SDS011;24384;51.988;4.644;2022-07-06T07:05:20;2.05;;;0.50;;
38629;SDS011;24384;51.988;4.644;2022-07-06T07:07:45;4.30;;;0.50;;
38629;SDS011;24384;51.988;4.644;2022-07-06T07:10:11;4.13;;;0.90;;
38629;SDS011;24384;51.988;4.644;2022-07-06T07:12:42;3.38;;;0.50;;
38629;SDS011;24384;51.988;4.644;2022-07-06T07:15:08;1.42;;;0.38;;
38629;SDS011;24384;51.988;4.644;2022-07-06T07:17:34;1.45;;;0.38;;
38629;SDS011;24384;51.988;4.644;2022-07-06T07:19:59;5.18;;;0.95;;
38629;SDS011;24384;51.988;4.644;2022-07-06T07:22:25;1.20;;;0.30;;
38629;SDS011;24384;51.988;4.644;2022-07-06T07:24:50;2.85;;;0.60;;
38629;SDS011;24384;51.988;4.644;2022-07-06T07:27:15;2.95;;;0.50;;
38629;SDS011;24384;51.988;4.644;2022-07-06T07:29:41;2.72;;;0.45;;
38629;SDS011;24384;51.988;4.644;2022-07-06T07:32:06;1.05;;;0.20;;
38629;SDS011;24384;51.988;4.644;2022-07-06T07:34:32;10.45;;;0.50;;
38629;SDS011;24384;51.988;4.644;2022-07-06T07:36:57;7.05;;;0.70;;
38629;SDS011;24384;51.988;4.644;2022-07-06T07:39:23;2.33;;;0.40;;
38629;SDS011;24384;51.988;4.644;2022-07-06T07:41:48;2.30;;;0.30;;
38629;SDS011;24384;51.988;4.644;2022-07-06T07:44:15;1.63;;;0.40;;
38629;SDS011;24384;51.988;4.644;2022-07-06T07:46:41;0.80;;;0.22;;
38629;SDS011;24384;51.988;4.644;2022-07-06T07:49:06;1.95;;;0.38;;
38629;SDS011;24384;51.988;4.644;2022-07-06T07:51:32;3.05;;;0.30;;
38629;SDS011;24384;51.988;4.644;2022-07-06T07:53:58;3.50;;;0.52;;
38629;SDS011;24384;51.988;4.644;2022-07-06T07:56:23;1.58;;;0.70;;
38629;SDS011;24384;51.988;4.644;2022-07-06T07:58:48;2.00;;;0.43;;
38629;SDS011;24384;51.988;4.644;2022-07-06T08:01:14;1.60;;;0.40;;
38629;SDS011;24384;51.988;4.644;2022-07-06T08:03:40;1.23;;;0.40;;
38629;SDS011;24384;51.988;4.644;2022-07-06T08:06:05;1.40;;;0.30;;
38629;SDS011;24384;51.988;4.644;2022-07-06T08:08:33;0.70;;;0.30;;
38629;SDS011;24384;51.988;4.644;2022-07-06T08:10:58;1.70;;;0.38;;
38629;SDS011;24384;51.988;4.644;2022-07-06T08:13:23;1.85;;;0.30;;
38629;SDS011;24384;51.988;4.644;2022-07-06T08:15:49;2.05;;;0.40;;
38629;SDS011;24384;51.988;4.644;2022-07-06T08:18:14;1.48;;;0.38;;
38629;SDS011;24384;51.988;4.644;2022-07-06T08:20:40;1.98;;;0.32;;
38629;SDS011;24384;51.988;4.644;2022-07-06T08:23:05;0.98;;;0.32;;
38629;SDS011;24384;51.988;4.644;2022-07-06T08:25:30;2.20;;;0.20;;
38629;SDS011;24384;51.988;4.644;2022-07-06T08:27:56;1.00;;;0.32;;
38629;SDS011;24384;51.988;4.644;2022-07-06T08:30:22;1.35;;;0.40;;
38629;SDS011;24384;51.988;4.644;2022-07-06T08:32:48;0.68;;;0.30;;
38629;SDS011;24384;51.988;4.644;2022-07-06T08:35:13;2.65;;;0.40;;
38629;SDS011;24384;51.988;4.644;2022-07-06T08:37:39;3.05;;;0.52;;
38629;SDS011;24384;51.988;4.644;2022-07-06T08:40:05;1.65;;;0.30;;
38629;SDS011;24384;51.988;4.644;2022-07-06T08:42:33;2.42;;;0.45;;
38629;SDS011;24384;51.988;4.644;2022-07-06T08:45:00;1.15;;;0.30;;
38629;SDS011;24384;51.988;4.644;2022-07-06T08:47:28;1.10;;;0.35;;
38629;SDS011;24384;51.988;4.644;2022-07-06T08:49:54;1.20;;;0.30;;
38629;SDS011;24384;51.988;4.644;2022-07-06T08:52:20;2.38;;;0.73;;
38629;SDS011;24384;51.988;4.644;2022-07-06T08:54:47;0.63;;;0.20;;
38629;SDS011;24384;51.988;4.644;2022-07-06T08:57:13;1.15;;;0.20;;
38629;SDS011;24384;51.988;4.644;2022-07-06T08:59:39;1.63;;;0.20;;
38629;SDS011;24384;51.988;4.644;2022-07-06T09:02:05;1.15;;;0.30;;
38629;SDS011;24384;51.988;4.644;2022-07-06T09:04:34;1.42;;;0.30;;
38629;SDS011;24384;51.988;4.644;2022-07-06T09:07:01;0.90;;;0.30;;
38629;SDS011;24384;51.988;4.644;2022-07-06T09:09:26;1.20;;;0.20;;
38629;SDS011;24384;51.988;4.644;2022-07-06T09:11:56;1.33;;;0.30;;
38629;SDS011;24384;51.988;4.644;2022-07-06T09:14:21;1.98;;;0.30;;
38629;SDS011;24384;51.988;4.644;2022-07-06T09:16:48;1.30;;;0.30;;
38629;SDS011;24384;51.988;4.644;2022-07-06T09:19:18;2.33;;;0.30;;
38629;SDS011;24384;51.988;4.644;2022-07-06T09:21:43;2.95;;;0.30;;
38629;SDS011;24384;51.988;4.644;2022-07-06T09:24:10;2.88;;;0.50;;
38629;SDS011;24384;51.988;4.644;2022-07-06T09:26:37;1.17;;;0.25;;
38629;SDS011;24384;51.988;4.644;2022-07-06T09:29:04;1.02;;;0.20;;
38629;SDS011;24384;51.988;4.644;2022-07-06T09:31:30;1.55;;;0.32;;
38629;SDS011;24384;51.988;4.644;2022-07-06T09:33:56;1.05;;;0.30;;
38629;SDS011;24384;51.988;4.644;2022-07-06T09:36:42;1.58;;;0.22;;
38629;SDS011;24384;51.988;4.644;2022-07-06T09:39:29;1.33;;;0.30;;
38629;SDS011;24384;51.988;4.644;2022-07-06T09:41:58;0.95;;;0.30;;
38629;SDS011;24384;51.988;4.644;2022-07-06T09:44:29;3.58;;;0.40;;
38629;SDS011;24384;51.988;4.644;2022-07-06T09:46:56;1.48;;;0.35;;
38629;SDS011;24384;51.988;4.644;2022-07-06T09:49:24;3.70;;;0.40;;
38629;SDS011;24384;51.988;4.644;2022-07-06T09:51:50;1.40;;;0.40;;
38629;SDS011;24384;51.988;4.644;2022-07-06T09:54:17;1.83;;;0.43;;
38629;SDS011;24384;51.988;4.644;2022-07-06T09:56:44;2.15;;;0.40;;
38629;SDS011;24384;51.988;4.644;2022-07-06T09:59:16;2.95;;;0.50;;
38629;SDS011;24384;51.988;4.644;2022-07-06T10:01:43;1.20;;;0.30;;
38629;SDS011;24384;51.988;4.644;2022-07-06T10:04:10;3.67;;;0.40;;
38629;SDS011;24384;51.988;4.644;2022-07-06T10:06:38;2.85;;;0.40;;
38629;SDS011;24384;51.988;4.644;2022-07-06T10:09:05;1.30;;;0.30;;
38629;SDS011;24384;51.988;4.644;2022-07-06T10:11:33;2.67;;;0.50;;
38629;SDS011;24384;51.988;4.644;2022-07-06T10:14:03;2.75;;;0.63;;
38629;SDS011;24384;51.988;4.644;2022-07-06T10:16:30;2.63;;;0.60;;
38629;SDS011;24384;51.988;4.644;2022-07-06T10:18:56;1.55;;;0.30;;
38629;SDS011;24384;51.988;4.644;2022-07-06T10:21:23;2.88;;;0.50;;
38629;SDS011;24384;51.988;4.644;2022-07-06T10:23:49;3.35;;;0.30;;
38629;SDS011;24384;51.988;4.644;2022-07-06T10:26:19;1.15;;;0.50;;
38629;SDS011;24384;51.988;4.644;2022-07-06T10:28:50;2.03;;;0.50;;
38629;SDS011;24384;51.988;4.644;2022-07-06T10:31:17;2.67;;;0.60;;
38629;SDS011;24384;51.988;4.644;2022-07-06T10:33:44;1.58;;;0.47;;
38629;SDS011;24384;51.988;4.644;2022-07-06T10:36:10;1.58;;;0.57;;
38629;SDS011;24384;51.988;4.644;2022-07-06T10:38:37;2.70;;;0.50;;
38629;SDS011;24384;51.988;4.644;2022-07-06T10:41:07;2.30;;;0.60;;
38629;SDS011;24384;51.988;4.644;2022-07-06T10:43:34;4.00;;;0.60;;
38629;SDS011;24384;51.988;4.644;2022-07-06T10:46:05;3.70;;;0.73;;
38629;SDS011;24384;51.988;4.644;2022-07-06T10:48:39;3.20;;;0.70;;
38629;SDS011;24384;51.988;4.644;2022-07-06T10:51:06;2.75;;;0.50;;
38629;SDS011;24384;51.988;4.644;2022-07-06T10:53:36;2.55;;;0.55;;
38629;SDS011;24384;51.988;4.644;2022-07-06T10:56:04;1.75;;;0.55;;
38629;SDS011;24384;51.988;4.644;2022-07-06T10:58:41;4.18;;;0.50;;
38629;SDS011;24384;51.988;4.644;2022-07-06T11:01:15;1.88;;;0.63;;
38629;SDS011;24384;51.988;4.644;2022-07-06T11:03:49;2.38;;;0.50;;
38629;SDS011;24384;51.988;4.644;2022-07-06T11:06:33;2.60;;;0.50;;
38629;SDS011;24384;51.988;4.644;2022-07-06T11:09:05;2.88;;;0.40;;
38629;SDS011;24384;51.988;4.644;2022-07-06T11:14:02;3.03;;;0.68;;
38629;SDS011;24384;51.988;4.644;2022-07-06T11:16:33;4.75;;;0.65;;
38629;SDS011;24384;51.988;4.644;2022-07-06T11:19:23;5.20;;;0.60;;
38629;SDS011;24384;51.988;4.644;2022-07-06T11:21:49;5.85;;;0.80;;
38629;SDS011;24384;51.988;4.644;2022-07-06T11:24:29;7.88;;;0.68;;
38629;SDS011;24384;51.988;4.644;2022-07-06T11:26:56;10.52;;;1.20;;
38629;SDS011;24384;51.988;4.644;2022-07-06T11:29:23;2.95;;;0.73;;
38629;SDS011;24384;51.988;4.644;2022-07-06T11:31:53;1.38;;;0.50;;
38629;SDS011;24384;51.988;4.644;2022-07-06T11:34:21;13.07;;;0.93;;
38629;SDS011;24384;51.988;4.644;2022-07-06T11:39:25;1.52;;;0.47;;
38629;SDS011;24384;51.988;4.644;2022-07-06T11:41:51;3.58;;;0.70;;
38629;SDS011;24384;51.988;4.644;2022-07-06T11:44:17;3.80;;;0.65;;
38629;SDS011;24384;51.988;4.644;2022-07-06T11:46:43;1.55;;;0.30;;
38629;SDS011;24384;51.988;4.644;2022-07-06T11:49:08;3.03;;;0.80;;
38629;SDS011;24384;51.988;4.644;2022-07-06T11:51:37;4.45;;;0.70;;
38629;SDS011;24384;51.988;4.644;2022-07-06T11:54:11;2.42;;;0.65;;
38629;SDS011;24384;51.988;4.644;2022-07-06T11:56:57;3.28;;;0.70;;
38629;SDS011;24384;51.988;4.644;2022-07-06T11:59:34;3.05;;;1.00;;
38629;SDS011;24384;51.988;4.644;2022-07-06T12:04:30;2.08;;;0.57;;
38629;SDS011;24384;51.988;4.644;2022-07-06T12:07:00;2.97;;;0.88;;
38629;SDS011;24384;51.988;4.644;2022-07-06T12:09:34;3.28;;;0.90;;
38629;SDS011;24384;51.988;4.644;2022-07-06T12:12:01;4.53;;;1.05;;
38629;SDS011;24384;51.988;4.644;2022-07-06T12:14:28;4.38;;;0.80;;
38629;SDS011;24384;51.988;4.644;2022-07-06T12:16:54;3.75;;;1.00;;
38629;SDS011;24384;51.988;4.644;2022-07-06T12:19:23;2.33;;;0.80;;
38629;SDS011;24384;51.988;4.644;2022-07-06T12:21:49;3.50;;;0.77;;
38629;SDS011;24384;51.988;4.644;2022-07-06T12:24:23;6.60;;;1.00;;
38629;SDS011;24384;51.988;4.644;2022-07-06T12:26:50;4.70;;;1.00;;
38629;SDS011;24384;51.988;4.644;2022-07-06T12:29:17;8.63;;;0.80;;
38629;SDS011;24384;51.988;4.644;2022-07-06T12:31:43;3.80;;;0.82;;
38629;SDS011;24384;51.988;4.644;2022-07-06T12:34:14;5.07;;;0.90;;
38629;SDS011;24384;51.988;4.644;2022-07-06T12:39:13;6.85;;;0.85;;
38629;SDS011;24384;51.988;4.644;2022-07-06T12:41:43;4.35;;;1.10;;
38629;SDS011;24384;51.988;4.644;2022-07-06T12:44:17;7.60;;;0.98;;
38629;SDS011;24384;51.988;4.644;2022-07-06T12:47:10;2.88;;;0.70;;
38629;SDS011;24384;51.988;4.644;2022-07-06T12:49:35;5.07;;;0.90;;
38629;SDS011;24384;51.988;4.644;2022-07-06T12:54:34;3.85;;;0.80;;
38629;SDS011;24384;51.988;4.644;2022-07-06T12:59:40;6.30;;;0.80;;
38629;SDS011;24384;51.988;4.644;2022-07-06T13:02:06;4.82;;;0.93;;
38629;SDS011;24384;51.988;4.644;2022-07-06T13:04:34;4.32;;;1.50;;
38629;SDS011;24384;51.988;4.644;2022-07-06T13:07:01;5.70;;;1.17;;
38629;SDS011;24384;51.988;4.644;2022-07-06T13:09:28;6.63;;;0.90;;
38629;SDS011;24384;51.988;4.644;2022-07-06T13:11:54;3.28;;;1.00;;
38629;SDS011;24384;51.988;4.644;2022-07-06T13:14:20;11.52;;;1.30;;
38629;SDS011;24384;51.988;4.644;2022-07-06T13:16:45;6.35;;;1.00;;
38629;SDS011;24384;51.988;4.644;2022-07-06T13:19:12;4.78;;;1.10;;
38629;SDS011;24384;51.988;4.644;2022-07-06T13:21:38;3.63;;;0.80;;
38629;SDS011;24384;51.988;4.644;2022-07-06T13:24:04;4.53;;;1.20;;
38629;SDS011;24384;51.988;4.644;2022-07-06T13:26:30;4.35;;;1.05;;
38629;SDS011;24384;51.988;4.644;2022-07-06T13:29:00;2.35;;;0.80;;
38629;SDS011;24384;51.988;4.644;2022-07-06T13:31:26;7.40;;;1.17;;
38629;SDS011;24384;51.988;4.644;2022-07-06T13:33:53;10.15;;;1.33;;
38629;SDS011;24384;51.988;4.644;2022-07-06T13:36:19;6.35;;;1.27;;
38629;SDS011;24384;51.988;4.644;2022-07-06T13:38:44;16.27;;;2.05;;
38629;SDS011;24384;51.988;4.644;2022-07-06T13:41:10;6.53;;;1.00;;
38629;SDS011;24384;51.988;4.644;2022-07-06T13:43:35;10.60;;;1.60;;
38629;SDS011;24384;51.988;4.644;2022-07-06T13:46:02;4.82;;;1.23;;
38629;SDS011;24384;51.988;4.644;2022-07-06T13:48:31;4.10;;;0.90;;
38629;SDS011;24384;51.988;4.644;2022-07-06T13:50:58;4.85;;;1.10;;
38629;SDS011;24384;51.988;4.644;2022-07-06T13:53:23;3.15;;;1.00;;
38629;SDS011;24384;51.988;4.644;2022-07-06T13:55:49;2.63;;;1.08;;
38629;SDS011;24384;51.988;4.644;2022-07-06T13:58:14;11.05;;;1.35;;
38629;SDS011;24384;51.988;4.644;2022-07-06T14:00:40;6.95;;;1.38;;
38629;SDS011;24384;51.988;4.644;2022-07-06T14:03:05;8.18;;;1.30;;
38629;SDS011;24384;51.988;4.644;2022-07-06T14:05:31;6.40;;;1.35;;
38629;SDS011;24384;51.988;4.644;2022-07-06T14:07:56;7.80;;;1.80;;
38629;SDS011;24384;51.988;4.644;2022-07-06T14:10:22;5.35;;;1.77;;
38629;SDS011;24384;51.988;4.644;2022-07-06T14:12:47;6.57;;;1.63;;
38629;SDS011;24384;51.988;4.644;2022-07-06T14:15:13;3.22;;;0.90;;
38629;SDS011;24384;51.988;4.644;2022-07-06T14:17:39;4.13;;;1.25;;
38629;SDS011;24384;51.988;4.644;2022-07-06T14:20:04;6.90;;;1.65;;
38629;SDS011;24384;51.988;4.644;2022-07-06T14:22:30;5.63;;;1.73;;
38629;SDS011;24384;51.988;4.644;2022-07-06T14:24:55;5.60;;;1.58;;
38629;SDS011;24384;51.988;4.644;2022-07-06T14:27:21;8.70;;;1.70;;
38629;SDS011;24384;51.988;4.644;2022-07-06T14:29:46;9.13;;;2.40;;
38629;SDS011;24384;51.988;4.644;2022-07-06T14:32:12;9.18;;;2.60;;
38629;SDS011;24384;51.988;4.644;2022-07-06T14:34:37;7.35;;;2.35;;
38629;SDS011;24384;51.988;4.644;2022-07-06T14:37:03;9.70;;;2.42;;
38629;SDS011;24384;51.988;4.644;2022-07-06T14:39:28;8.45;;;2.50;;
38629;SDS011;24384;51.988;4.644;2022-07-06T14:41:54;7.32;;;1.92;;
38629;SDS011;24384;51.988;4.644;2022-07-06T14:44:19;10.80;;;2.60;;
38629;SDS011;24384;51.988;4.644;2022-07-06T14:46:45;7.93;;;2.17;;
38629;SDS011;24384;51.988;4.644;2022-07-06T14:49:10;4.82;;;2.03;;
38629;SDS011;24384;51.988;4.644;2022-07-06T14:51:35;5.85;;;2.22;;
38629;SDS011;24384;51.988;4.644;2022-07-06T14:54:01;6.53;;;2.28;;
38629;SDS011;24384;51.988;4.644;2022-07-06T14:56:26;7.20;;;2.10;;
38629;SDS011;24384;51.988;4.644;2022-07-06T14:58:52;7.30;;;2.30;;
38629;SDS011;24384;51.988;4.644;2022-07-06T15:01:17;6.75;;;2.40;;